Time;durP1;ratioP1;P1;durP2;ratioP2;P2;SDS_P1;SDS_P2;PMS_P1;PMS_P2;Temp;Humidity;BMP_temperature;BMP_pressure;BME280_temperature;BME280_humidity;BME280_pressure;Samples;Min_cycle;Max_cycle;Signal;HPM_P1;HPM_P2
2022/09/15 00:02:10;;;;;;;9.83;8.80;;;17.60;99.90;;;;;;5034379;28;20626;-73
2022/09/15 00:04:36;;;;;;;13.50;10.47;;;17.60;99.90;;;;;;5016372;28;20169;-73
2022/09/15 00:07:01;;;;;;;14.83;10.00;;;17.60;99.90;;;;;;5034037;28;20595;-73
2022/09/15 00:09:27;;;;;;;13.47;11.30;;;17.60;99.90;;;;;;5033564;28;20348;-73
2022/09/15 00:11:53;;;;;;;13.23;11.37;;;17.60;99.90;;;;;;5033798;28;20194;-73
2022/09/15 00:14:19;;;;;;;12.57;10.03;;;17.60;99.90;;;;;;5032561;28;20209;-73
2022/09/15 00:16:44;;;;;;;13.87;10.93;;;17.60;99.90;;;;;;5033893;28;20580;-73
2022/09/15 00:19:10;;;;;;;12.70;10.90;;;17.60;99.90;;;;;;5033448;28;20197;-73
2022/09/15 00:21:38;;;;;;;14.77;11.07;;;17.60;99.90;;;;;;5033582;28;20201;-73
2022/09/15 00:24:05;;;;;;;13.47;11.10;;;17.60;99.90;;;;;;5033740;28;20572;-74
2022/09/15 00:26:31;;;;;;;12.97;11.53;;;17.60;99.90;;;;;;5033693;28;20576;-73
2022/09/15 00:28:59;;;;;;;15.33;13.10;;;17.60;99.90;;;;;;5015934;28;20576;-72
2022/09/15 00:31:26;;;;;;;14.23;11.70;;;17.60;99.90;;;;;;5033084;28;20597;-73
2022/09/15 00:33:55;;;;;;;12.30;11.03;;;17.60;99.90;;;;;;5033623;28;21166;-73
2022/09/15 00:36:23;;;;;;;12.73;11.40;;;17.60;99.90;;;;;;5033617;28;20924;-72
2022/09/15 00:38:49;;;;;;;12.37;10.73;;;17.60;99.90;;;;;;5033609;28;20576;-72
2022/09/15 00:41:18;;;;;;;11.57;10.53;;;17.60;99.90;;;;;;5015230;28;20620;-73
2022/09/15 00:43:49;;;;;;;12.83;11.53;;;17.60;99.90;;;;;;5032140;28;21203;-73
2022/09/15 00:46:17;;;;;;;15.77;12.00;;;17.60;99.90;;;;;;5015720;28;20681;-73
2022/09/15 00:49:15;;;;;;;14.17;11.70;;;17.60;99.90;;;;;;5015631;28;20584;-72
2022/09/15 00:52:08;;;;;;;11.67;10.57;;;17.50;99.90;;;;;;5017374;28;20627;-73
2022/09/15 00:55:04;;;;;;;12.50;10.70;;;17.50;99.90;;;;;;5033016;28;20612;-73
2022/09/15 00:57:39;;;;;;;11.90;10.27;;;17.50;99.90;;;;;;4999004;28;20583;-72
2022/09/15 01:00:10;;;;;;;11.17;10.13;;;17.40;99.90;;;;;;5015070;28;20587;-73
2022/09/15 01:02:37;;;;;;;12.63;11.00;;;17.40;99.90;;;;;;5033561;28;20577;-80
2022/09/15 01:05:06;;;;;;;15.23;13.30;;;17.30;99.90;;;;;;5033111;28;20638;-79
2022/09/15 01:07:35;;;;;;;14.03;11.40;;;17.30;99.90;;;;;;5015338;28;20577;-79
2022/09/15 01:10:06;;;;;;;14.40;12.90;;;17.20;99.90;;;;;;5032628;28;20631;-79
2022/09/15 01:12:32;;;;;;;15.50;13.03;;;17.20;99.90;;;;;;5015168;28;20665;-79
2022/09/15 01:15:00;;;;;;;15.20;13.67;;;17.10;99.90;;;;;;5009055;28;21100;-79
2022/09/15 01:17:56;;;;;;;13.13;11.70;;;17.10;99.90;;;;;;5020891;28;20599;-79
2022/09/15 01:20:44;;;;;;;14.10;10.77;;;17.00;99.90;;;;;;4997788;28;20962;-80
2022/09/15 01:23:30;;;;;;;15.53;12.40;;;16.90;99.90;;;;;;5012614;28;20604;-79
2022/09/15 01:26:07;;;;;;;14.90;12.90;;;16.80;99.90;;;;;;5006088;28;21892;-79
2022/09/15 01:28:42;;;;;;;13.33;11.47;;;16.80;99.90;;;;;;5030130;28;20634;-79
2022/09/15 01:31:22;;;;;;;12.77;11.53;;;16.70;99.90;;;;;;5017680;28;20616;-81
2022/09/15 01:33:59;;;;;;;13.47;11.33;;;16.60;99.90;;;;;;5032509;28;20630;-79
2022/09/15 01:36:44;;;;;;;13.57;11.67;;;16.60;99.90;;;;;;5032615;28;20615;-79
2022/09/15 01:39:20;;;;;;;14.43;12.80;;;16.60;99.90;;;;;;5032009;28;20602;-79
2022/09/15 01:41:57;;;;;;;15.37;12.90;;;16.60;99.90;;;;;;5031950;28;20618;-79
2022/09/15 01:44:27;;;;;;;15.50;12.97;;;16.50;99.90;;;;;;5032094;28;20663;-79
2022/09/15 01:46:57;;;;;;;13.17;11.80;;;16.50;99.90;;;;;;5032373;28;20986;-79
2022/09/15 01:49:28;;;;;;;15.20;12.80;;;16.50;99.90;;;;;;5032241;28;20564;-79
2022/09/15 01:51:54;;;;;;;14.10;12.60;;;16.50;99.90;;;;;;5032135;28;20619;-79
2022/09/15 01:54:31;;;;;;;16.50;14.17;;;16.40;99.90;;;;;;5014498;28;20670;-79
2022/09/15 01:56:57;;;;;;;14.43;12.93;;;16.40;99.90;;;;;;5014831;28;20582;-79
2022/09/15 01:59:24;;;;;;;14.20;12.80;;;16.40;99.90;;;;;;5014278;28;20584;-78
2022/09/15 02:02:00;;;;;;;15.20;13.67;;;16.40;99.90;;;;;;5031971;28;20990;-79
2022/09/15 02:04:44;;;;;;;16.77;12.70;;;16.40;99.90;;;;;;5014339;28;20583;-79
2022/09/15 02:07:35;;;;;;;13.70;11.63;;;16.40;99.90;;;;;;5032057;28;20675;-79
2022/09/15 02:10:06;;;;;;;14.00;12.07;;;16.40;99.90;;;;;;5031428;28;20623;-79
2022/09/15 02:12:52;;;;;;;18.13;13.03;;;16.50;99.90;;;;;;5031800;28;20929;-79
2022/09/15 02:15:27;;;;;;;18.60;13.60;;;16.50;99.90;;;;;;5031948;28;20576;-79
2022/09/15 02:17:56;;;;;;;14.00;12.57;;;16.50;99.90;;;;;;5014304;28;20571;-79
2022/09/15 02:20:30;;;;;;;13.80;12.40;;;16.50;99.90;;;;;;5031357;28;20695;-79
2022/09/15 02:23:07;;;;;;;13.60;12.00;;;16.50;99.90;;;;;;4997786;28;20560;-79
2022/09/15 02:26:05;;;;;;;15.20;13.00;;;16.50;99.90;;;;;;5014031;28;20568;-79
2022/09/15 02:28:34;;;;;;;13.93;11.43;;;16.50;99.90;;;;;;5031580;28;20573;-79
2022/09/15 02:31:01;;;;;;;14.60;12.30;;;16.60;99.90;;;;;;5031142;28;20592;-79
2022/09/15 02:33:52;;;;;;;16.80;13.67;;;16.60;99.90;;;;;;5013856;28;20967;-79
2022/09/15 02:36:19;;;;;;;17.73;12.80;;;16.60;99.90;;;;;;5031741;28;20634;-80
2022/09/15 02:38:56;;;;;;;14.77;13.20;;;16.70;99.90;;;;;;5031719;28;20667;-79
2022/09/15 02:41:23;;;;;;;13.47;11.57;;;16.70;99.90;;;;;;5030874;28;20619;-80
2022/09/15 02:43:49;;;;;;;15.07;12.53;;;16.80;99.90;;;;;;5031685;28;20680;-80
2022/09/15 02:46:18;;;;;;;16.87;13.03;;;16.80;99.90;;;;;;5031402;28;20580;-79
2022/09/15 02:48:44;;;;;;;14.47;12.50;;;16.80;99.90;;;;;;5031511;28;20604;-80
2022/09/15 02:51:10;;;;;;;13.60;12.10;;;16.80;99.90;;;;;;5031149;28;20994;-80
2022/09/15 02:53:36;;;;;;;13.57;12.00;;;16.80;99.90;;;;;;5031351;28;20219;-79
2022/09/15 02:56:06;;;;;;;13.60;11.60;;;16.80;99.90;;;;;;5034204;28;20602;-79
2022/09/15 02:58:33;;;;;;;15.97;11.50;;;16.80;99.90;;;;;;5017663;28;20174;-80
2022/09/15 03:01:04;;;;;;;12.90;11.60;;;16.70;99.90;;;;;;5035025;28;20683;-80
2022/09/15 03:03:31;;;;;;;12.50;11.20;;;16.70;99.90;;;;;;5035028;28;20630;-80
2022/09/15 03:06:15;;;;;;;13.37;11.67;;;16.60;99.90;;;;;;5017601;28;20607;-80
2022/09/15 03:08:53;;;;;;;19.60;11.30;;;16.60;99.90;;;;;;5017574;28;20580;-80
2022/09/15 03:11:21;;;;;;;12.90;11.50;;;16.50;99.90;;;;;;5034772;28;20608;-79
2022/09/15 03:13:51;;;;;;;15.90;12.83;;;16.50;99.90;;;;;;5035046;28;20616;-80
2022/09/15 03:16:17;;;;;;;13.87;12.40;;;16.40;99.90;;;;;;5035115;28;20603;-79
2022/09/15 03:18:43;;;;;;;13.30;11.90;;;16.40;99.90;;;;;;5035024;28;20600;-79
2022/09/15 03:21:12;;;;;;;12.23;10.10;;;16.30;99.90;;;;;;5034617;28;20190;-79
2022/09/15 03:23:38;;;;;;;18.33;13.00;;;16.30;99.90;;;;;;5034721;28;20853;-79
2022/09/15 03:26:04;;;;;;;13.63;11.67;;;16.20;99.90;;;;;;5017275;28;20572;-79
2022/09/15 03:28:31;;;;;;;18.23;12.43;;;16.20;99.90;;;;;;5017200;28;20607;-79
2022/09/15 03:30:56;;;;;;;13.60;11.57;;;16.10;99.90;;;;;;5016650;28;20665;-79
2022/09/15 03:33:23;;;;;;;14.57;12.20;;;16.10;99.90;;;;;;5016961;28;20615;-79
2022/09/15 03:35:50;;;;;;;13.40;10.80;;;16.10;99.90;;;;;;5017000;28;20170;-80
2022/09/15 03:38:16;;;;;;;17.73;12.30;;;16.00;99.90;;;;;;5000619;28;21164;-80
2022/09/15 03:40:42;;;;;;;13.60;10.33;;;16.00;99.90;;;;;;5033014;28;20743;-79
2022/09/15 03:43:11;;;;;;;17.80;12.07;;;16.00;99.90;;;;;;5034668;28;20587;-79
2022/09/15 03:45:37;;;;;;;17.23;11.50;;;15.90;99.90;;;;;;5034609;28;21192;-80
2022/09/15 03:48:04;;;;;;;16.03;11.70;;;15.90;99.90;;;;;;5034432;28;20580;-80
2022/09/15 03:50:32;;;;;;;14.07;12.53;;;15.80;99.90;;;;;;5016454;28;20674;-80
2022/09/15 03:53:01;;;;;;;13.80;12.40;;;15.80;99.90;;;;;;5034237;28;20584;-79
2022/09/15 03:55:27;;;;;;;14.10;12.70;;;15.80;99.90;;;;;;5016717;28;20584;-80
2022/09/15 03:57:54;;;;;;;14.90;10.97;;;15.80;99.90;;;;;;5034154;28;20568;-80
2022/09/15 04:00:20;;;;;;;14.53;11.47;;;15.80;99.90;;;;;;5016179;28;20616;-80
2022/09/15 04:02:46;;;;;;;14.10;12.53;;;15.70;99.90;;;;;;5016439;28;20659;-79
2022/09/15 04:05:12;;;;;;;16.17;12.50;;;15.70;99.90;;;;;;5016241;28;20974;-79
2022/09/15 04:07:39;;;;;;;15.40;12.40;;;15.70;99.90;;;;;;5033796;28;20579;-80
2022/09/15 04:10:09;;;;;;;13.60;12.20;;;15.70;99.90;;;;;;5032406;28;20558;-80
2022/09/15 04:12:35;;;;;;;17.07;12.70;;;15.60;99.90;;;;;;5014122;28;21008;-80
2022/09/15 04:15:01;;;;;;;23.40;14.70;;;15.60;99.90;;;;;;4993430;28;20689;-80
2022/09/15 04:17:27;;;;;;;14.23;12.37;;;15.60;99.90;;;;;;4994615;28;20924;-80
2022/09/15 04:19:53;;;;;;;12.53;10.77;;;15.60;99.90;;;;;;4994239;28;20562;-80
2022/09/15 04:22:19;;;;;;;16.30;13.73;;;15.60;99.90;;;;;;4976924;28;20583;-80
2022/09/15 04:24:47;;;;;;;17.30;13.07;;;15.60;99.90;;;;;;4994495;28;20562;-80
2022/09/15 04:27:13;;;;;;;16.37;14.27;;;15.60;99.90;;;;;;4994491;28;20562;-80
2022/09/15 04:29:40;;;;;;;16.10;12.77;;;15.60;99.90;;;;;;4976483;28;20685;-80
2022/09/15 04:32:06;;;;;;;19.27;13.57;;;15.60;99.90;;;;;;4995099;28;20605;-80
2022/09/15 04:34:32;;;;;;;14.70;13.00;;;15.60;99.90;;;;;;5013795;28;20624;-79
2022/09/15 04:36:58;;;;;;;15.40;12.53;;;15.60;99.90;;;;;;4996307;28;20589;-80
2022/09/15 04:39:24;;;;;;;14.87;13.20;;;15.60;99.90;;;;;;4996948;28;20155;-80
2022/09/15 04:41:50;;;;;;;15.00;12.17;;;15.60;99.90;;;;;;5014102;28;20194;-79
2022/09/15 04:44:15;;;;;;;14.57;12.77;;;15.60;99.90;;;;;;5013707;28;20581;-80
2022/09/15 04:46:41;;;;;;;15.50;13.53;;;15.70;99.90;;;;;;4995863;28;20234;-80
2022/09/15 04:49:07;;;;;;;17.37;14.67;;;15.70;99.90;;;;;;4995893;28;20181;-80
2022/09/15 04:51:33;;;;;;;19.07;14.37;;;15.70;99.90;;;;;;4995251;28;20224;-80
2022/09/15 04:53:58;;;;;;;17.20;13.37;;;15.70;99.90;;;;;;5013292;28;20268;-79
2022/09/15 04:56:25;;;;;;;17.17;15.37;;;15.80;99.90;;;;;;5013367;28;20257;-80
2022/09/15 04:58:54;;;;;;;20.30;14.60;;;15.80;99.90;;;;;;5013423;28;20177;-80
2022/09/15 05:01:22;;;;;;;18.07;13.57;;;15.80;99.90;;;;;;5012965;28;20620;-80
2022/09/15 05:03:48;;;;;;;16.10;13.77;;;15.90;99.90;;;;;;4995775;28;20585;-80
2022/09/15 05:06:16;;;;;;;18.07;14.40;;;16.00;99.90;;;;;;5013079;28;20581;-80
2022/09/15 05:08:42;;;;;;;16.93;13.53;;;16.00;99.90;;;;;;5013359;28;20569;-80
2022/09/15 05:11:11;;;;;;;18.27;14.60;;;16.10;99.90;;;;;;4995349;28;20613;-80
2022/09/15 05:13:38;;;;;;;17.20;14.50;;;16.10;99.90;;;;;;5012948;28;20720;-81
2022/09/15 05:16:10;;;;;;;15.53;12.90;;;16.20;99.90;;;;;;5013135;28;21344;-80
2022/09/15 05:18:37;;;;;;;19.40;13.80;;;16.20;99.90;;;;;;4998861;28;20574;-80
2022/09/15 05:21:04;;;;;;;20.93;16.37;;;16.30;99.90;;;;;;4995194;28;20645;-79
2022/09/15 05:23:30;;;;;;;14.83;13.10;;;16.30;99.90;;;;;;5013522;28;21047;-79
2022/09/15 05:26:00;;;;;;;15.83;12.63;;;16.40;99.90;;;;;;5011805;28;20963;-79
2022/09/15 05:28:27;;;;;;;17.20;13.27;;;16.40;99.90;;;;;;5012933;28;20585;-79
2022/09/15 05:30:54;;;;;;;13.87;12.47;;;16.50;99.90;;;;;;5011272;28;20613;-79
2022/09/15 05:33:21;;;;;;;16.17;13.53;;;16.50;99.90;;;;;;5012697;28;20628;-79
2022/09/15 05:35:59;;;;;;;13.97;12.57;;;16.50;99.90;;;;;;5012693;28;20663;-79
2022/09/15 05:38:27;;;;;;;14.23;12.27;;;16.60;99.90;;;;;;5012730;28;20623;-78
2022/09/15 05:40:53;;;;;;;17.73;13.43;;;16.60;99.90;;;;;;5012213;28;20712;-78
2022/09/15 05:43:19;;;;;;;15.30;12.47;;;16.70;99.90;;;;;;5011296;28;20724;-79
2022/09/15 05:45:53;;;;;;;15.37;12.63;;;16.70;99.90;;;;;;5012437;28;20600;-78
2022/09/15 05:48:19;;;;;;;15.47;13.90;;;16.80;99.90;;;;;;5012745;28;20570;-78
2022/09/15 05:50:52;;;;;;;15.40;13.80;;;16.80;99.90;;;;;;5011044;28;20615;-78
2022/09/15 05:53:19;;;;;;;14.73;12.87;;;16.90;99.90;;;;;;5011313;28;20790;-78
2022/09/15 05:55:45;;;;;;;15.13;11.60;;;16.90;99.90;;;;;;5013271;28;21152;-78
2022/09/15 05:58:12;;;;;;;15.00;12.53;;;17.00;99.90;;;;;;5012602;28;20660;-79
2022/09/15 06:00:39;;;;;;;15.50;11.23;;;17.00;99.90;;;;;;5011398;28;20633;-78
2022/09/15 06:03:04;;;;;;;12.30;10.97;;;17.00;99.90;;;;;;5012376;28;20613;-77
2022/09/15 06:05:30;;;;;;;16.10;11.47;;;17.10;99.90;;;;;;5004384;28;20680;-78
2022/09/15 06:07:56;;;;;;;14.00;11.33;;;17.10;99.90;;;;;;5001958;28;20207;-78
2022/09/15 06:10:23;;;;;;;13.93;11.40;;;17.20;99.90;;;;;;4983656;28;20617;-77
2022/09/15 06:12:53;;;;;;;14.07;11.70;;;17.20;99.90;;;;;;4992718;28;20179;-77
2022/09/15 06:15:20;;;;;;;13.77;11.20;;;17.20;99.90;;;;;;5002690;28;20581;-77
2022/09/15 06:17:46;;;;;;;11.70;9.80;;;17.30;99.90;;;;;;5004225;28;20604;-77
2022/09/15 06:20:12;;;;;;;14.50;10.67;;;17.30;99.90;;;;;;5011842;28;20593;-77
2022/09/15 06:22:38;;;;;;;12.60;11.37;;;17.30;99.90;;;;;;5011368;28;20566;-77
2022/09/15 06:25:06;;;;;;;13.17;11.00;;;17.40;99.90;;;;;;5012804;28;20597;-77
2022/09/15 06:27:32;;;;;;;12.07;10.87;;;17.40;99.90;;;;;;4995082;28;20565;-77
2022/09/15 06:29:58;;;;;;;15.60;11.07;;;17.40;99.90;;;;;;5011466;28;20564;-77
2022/09/15 06:32:24;;;;;;;15.10;10.37;;;17.50;99.90;;;;;;5012665;28;20573;-77
2022/09/15 06:34:50;;;;;;;12.97;10.87;;;17.50;99.90;;;;;;4994388;28;20616;-76
2022/09/15 06:37:16;;;;;;;13.00;10.00;;;17.60;99.90;;;;;;5011985;28;21191;-76
2022/09/15 06:39:42;;;;;;;11.87;9.90;;;17.70;99.90;;;;;;5011534;28;20167;-77
2022/09/15 06:42:09;;;;;;;11.67;10.13;;;17.70;99.90;;;;;;5011936;28;20651;-77
2022/09/15 06:44:35;;;;;;;13.30;10.07;;;17.80;99.90;;;;;;5011780;28;20569;-77
2022/09/15 06:47:01;;;;;;;15.50;9.60;;;17.80;99.90;;;;;;5011849;28;20578;-77
2022/09/15 06:49:27;;;;;;;11.73;10.53;;;17.90;99.90;;;;;;5011309;28;20581;-77
2022/09/15 06:51:53;;;;;;;13.17;10.23;;;18.00;99.90;;;;;;5011569;28;20608;-77
2022/09/15 06:54:19;;;;;;;10.63;8.90;;;18.00;99.90;;;;;;5011850;28;20648;-78
2022/09/15 06:56:44;;;;;;;12.57;9.33;;;18.10;99.90;;;;;;5011867;28;20613;-77
2022/09/15 06:59:11;;;;;;;13.33;10.90;;;18.20;99.90;;;;;;5011605;28;20170;-77
2022/09/15 07:01:37;;;;;;;15.03;10.30;;;18.30;99.90;;;;;;5011536;28;20666;-78
2022/09/15 07:04:07;;;;;;;10.23;9.20;;;18.40;99.90;;;;;;4993882;28;20624;-77
2022/09/15 07:06:33;;;;;;;11.70;10.50;;;18.50;99.90;;;;;;5011850;28;20199;-78
2022/09/15 07:09:01;;;;;;;11.07;9.93;;;18.70;99.90;;;;;;5044744;22;20664;-75
2022/09/15 07:11:27;;;;;;;9.80;8.50;;;18.80;99.90;;;;;;5021233;28;20639;-76
2022/09/15 07:13:53;;;;;;;10.63;8.97;;;19.00;99.90;;;;;;5016682;28;21081;-76
2022/09/15 07:16:20;;;;;;;11.07;9.00;;;19.10;99.90;;;;;;5019538;28;20620;-76
2022/09/15 07:18:48;;;;;;;12.47;10.30;;;19.10;99.90;;;;;;5020411;28;20601;-76
2022/09/15 07:21:18;;;;;;;11.43;10.23;;;19.20;99.90;;;;;;5020289;28;21018;-76
2022/09/15 07:24:04;;;;;;;11.17;9.40;;;19.20;99.90;;;;;;5019597;28;20573;-77
2022/09/15 07:26:30;;;;;;;9.97;9.07;;;19.30;99.90;;;;;;5017352;28;20581;-77
2022/09/15 07:28:57;;;;;;;11.50;8.70;;;19.40;99.90;;;;;;5020864;28;20609;-76
2022/09/15 07:31:26;;;;;;;12.63;11.27;;;19.40;99.90;;;;;;5015358;28;20602;-76
2022/09/15 07:33:52;;;;;;;9.60;8.70;;;19.50;99.90;;;;;;5014069;28;21210;-76
2022/09/15 07:36:18;;;;;;;12.13;8.27;;;19.60;99.90;;;;;;5012349;28;20620;-76
2022/09/15 07:38:46;;;;;;;10.47;9.20;;;19.80;99.90;;;;;;5012616;28;20584;-77
2022/09/15 07:41:17;;;;;;;10.83;8.80;;;19.90;99.90;;;;;;5014759;28;20588;-76
2022/09/15 07:43:55;;;;;;;9.30;8.40;;;20.10;99.90;;;;;;5015160;28;20655;-76
2022/09/15 07:46:22;;;;;;;12.33;7.80;;;20.20;99.90;;;;;;5015786;28;20592;-76
2022/09/15 07:48:55;;;;;;;14.00;8.30;;;20.40;99.90;;;;;;5017936;28;20615;-76
2022/09/15 07:51:21;;;;;;;10.53;9.30;;;20.50;99.90;;;;;;5019449;28;20577;-77
2022/09/15 07:53:48;;;;;;;10.27;9.17;;;20.70;99.90;;;;;;5018816;28;20761;-76
2022/09/15 07:56:18;;;;;;;7.83;7.03;;;20.80;99.90;;;;;;5019926;28;20592;-77
2022/09/15 07:58:45;;;;;;;10.87;8.73;;;20.90;99.90;;;;;;5023709;28;20597;-77
2022/09/15 08:01:11;;;;;;;9.97;8.23;;;21.10;99.90;;;;;;5034639;28;20573;-78
2022/09/15 08:03:42;;;;;;;7.97;7.17;;;21.20;99.90;;;;;;5035233;28;20561;-76
2022/09/15 08:06:09;;;;;;;9.03;8.17;;;21.30;99.90;;;;;;5021997;28;20601;-76
2022/09/15 08:08:39;;;;;;;9.00;7.60;;;21.40;99.90;;;;;;5025476;28;20700;-76
2022/09/15 08:11:18;;;;;;;8.53;7.30;;;21.40;99.90;;;;;;5024936;28;20623;-76
2022/09/15 08:13:44;;;;;;;7.00;6.40;;;21.30;99.90;;;;;;5025017;28;20644;-76
2022/09/15 08:16:13;;;;;;;10.60;6.70;;;21.30;99.90;;;;;;5023252;28;20589;-76
2022/09/15 08:18:43;;;;;;;8.07;7.23;;;21.30;99.90;;;;;;5023237;28;20615;-76
2022/09/15 08:21:12;;;;;;;7.23;6.40;;;21.30;99.90;;;;;;5021674;28;20639;-76
2022/09/15 08:23:39;;;;;;;12.30;7.43;;;21.20;99.90;;;;;;5019017;28;20601;-76
2022/09/15 08:26:09;;;;;;;9.60;6.50;;;21.20;99.90;;;;;;5019104;28;21144;-76
2022/09/15 08:28:36;;;;;;;8.70;7.53;;;21.20;99.90;;;;;;5021205;28;20621;-76
2022/09/15 08:31:04;;;;;;;8.90;6.37;;;21.30;99.90;;;;;;5018929;28;21136;-76
2022/09/15 08:33:31;;;;;;;8.07;6.83;;;21.50;99.90;;;;;;5019722;28;20660;-76
2022/09/15 08:36:06;;;;;;;12.40;7.20;;;21.60;99.90;;;;;;5021458;28;20604;-76
2022/09/15 08:38:32;;;;;;;10.20;6.20;;;21.80;99.90;;;;;;5018485;28;20650;-75
2022/09/15 08:41:03;;;;;;;7.50;6.37;;;21.90;99.90;;;;;;5017322;28;20985;-76
2022/09/15 08:43:38;;;;;;;6.43;5.80;;;22.00;99.90;;;;;;5023472;28;20577;-76
2022/09/15 08:46:08;;;;;;;8.47;6.67;;;22.20;99.90;;;;;;5022974;28;20655;-76
2022/09/15 08:49:01;;;;;;;7.90;6.13;;;22.30;99.90;;;;;;5017874;28;20616;-77
2022/09/15 08:51:39;;;;;;;7.73;7.03;;;22.40;99.90;;;;;;5015614;28;20749;-76
2022/09/15 08:54:13;;;;;;;6.87;6.27;;;22.50;99.90;;;;;;5016419;28;20629;-77
2022/09/15 08:56:41;;;;;;;5.83;5.33;;;22.80;99.90;;;;;;5015907;28;20588;-76
2022/09/15 08:59:12;;;;;;;6.87;5.83;;;23.00;99.90;;;;;;5018843;28;20601;-76
2022/09/15 09:02:04;;;;;;;6.90;5.33;;;23.20;99.90;;;;;;5015460;28;20605;-76
2022/09/15 09:04:47;;;;;;;6.23;4.87;;;23.30;99.90;;;;;;5019262;28;20569;-76
2022/09/15 09:07:31;;;;;;;6.57;5.10;;;23.50;99.90;;;;;;5033864;28;20573;-76
2022/09/15 09:10:22;;;;;;;5.70;4.47;;;23.70;99.90;;;;;;5021199;28;20688;-76
2022/09/15 09:12:54;;;;;;;4.97;4.43;;;24.00;99.90;;;;;;5014612;28;20590;-76
2022/09/15 09:15:32;;;;;;;6.53;5.17;;;24.40;99.90;;;;;;5019228;28;20667;-76
2022/09/15 09:18:01;;;;;;;4.93;4.53;;;24.50;99.90;;;;;;5017706;28;20569;-76
2022/09/15 09:20:52;;;;;;;6.00;5.23;;;24.60;99.90;;;;;;5021618;28;20640;-76
2022/09/15 09:23:23;;;;;;;4.30;3.90;;;24.50;99.90;;;;;;5026225;28;20604;-76
2022/09/15 09:25:49;;;;;;;5.47;4.00;;;24.50;99.90;;;;;;5025855;28;20589;-76
2022/09/15 09:28:27;;;;;;;8.80;3.87;;;24.50;99.90;;;;;;5031066;28;20573;-76
2022/09/15 09:30:56;;;;;;;3.80;3.47;;;24.40;99.90;;;;;;5032117;28;20588;-77
2022/09/15 09:33:48;;;;;;;4.93;3.30;;;24.40;99.90;;;;;;5033737;28;20628;-77
2022/09/15 09:36:15;;;;;;;5.70;2.63;;;24.40;99.90;;;;;;5033689;28;21004;-77
2022/09/15 09:38:43;;;;;;;9.50;3.90;;;24.30;99.90;;;;;;5035325;28;20608;-77
2022/09/15 09:41:18;;;;;;;5.23;3.00;;;24.20;99.90;;;;;;5031106;28;20947;-76
2022/09/15 09:43:46;;;;;;;4.00;2.73;;;24.00;99.90;;;;;;5034693;28;20572;-76
2022/09/15 09:46:15;;;;;;;4.70;2.33;;;23.90;99.90;;;;;;5033411;28;20588;-77
2022/09/15 09:48:59;;;;;;;4.27;2.27;;;23.90;99.90;;;;;;5026183;28;20629;-76
2022/09/15 09:51:33;;;;;;;4.00;2.20;;;24.10;99.90;;;;;;5028207;28;20921;-76
2022/09/15 09:54:05;;;;;;;6.07;3.90;;;24.30;99.90;;;;;;5030041;28;20632;-77
2022/09/15 09:56:30;;;;;;;4.73;3.50;;;24.50;99.90;;;;;;5008500;28;20596;-76
2022/09/15 09:58:56;;;;;;;6.27;2.80;;;24.60;99.90;;;;;;5026785;28;20601;-77
2022/09/15 10:01:24;;;;;;;8.50;2.40;;;24.70;99.90;;;;;;5024228;28;20226;-76
2022/09/15 10:04:17;;;;;;;3.90;2.10;;;24.70;99.90;;;;;;5023237;28;20291;-76
2022/09/15 10:06:44;;;;;;;10.27;2.30;;;24.60;99.90;;;;;;5024891;28;20644;-77
2022/09/15 10:09:17;;;;;;;3.73;1.43;;;24.60;99.90;;;;;;5024091;28;20624;-77
2022/09/15 10:11:47;;;;;;;1.83;0.93;;;24.60;99.90;;;;;;5026885;28;20582;-77
2022/09/15 10:14:20;;;;;;;2.50;0.87;;;24.50;99.90;;;;;;5025463;28;20613;-76
2022/09/15 10:17:05;;;;;;;2.33;1.10;;;24.50;99.90;;;;;;5024580;28;20613;-76
2022/09/15 10:19:35;;;;;;;3.13;0.97;;;24.40;99.90;;;;;;5031634;28;20639;-77
2022/09/15 10:22:02;;;;;;;3.17;1.57;;;24.40;99.90;;;;;;5028980;28;20586;-77
2022/09/15 10:24:38;;;;;;;7.13;2.10;;;24.30;99.90;;;;;;5025533;28;20577;-76
2022/09/15 10:27:24;;;;;;;3.73;1.87;;;24.20;99.90;;;;;;5022700;28;20569;-76
2022/09/15 10:29:50;;;;;;;3.60;2.53;;;24.10;99.90;;;;;;5019664;28;20629;-76
2022/09/15 10:32:27;;;;;;;3.87;2.20;;;24.10;99.90;;;;;;5014788;28;20634;-76
2022/09/15 10:35:00;;;;;;;4.40;2.20;;;24.20;99.90;;;;;;5017557;28;20217;-76
2022/09/15 10:37:37;;;;;;;4.57;2.50;;;24.20;99.90;;;;;;5016621;28;20558;-76
2022/09/15 10:40:21;;;;;;;5.20;2.23;;;24.20;99.90;;;;;;5016324;28;20711;-76
2022/09/15 10:42:51;;;;;;;8.20;3.70;;;24.10;99.90;;;;;;5014691;28;20565;-75
2022/09/15 10:45:25;;;;;;;4.93;2.90;;;24.20;99.90;;;;;;5013651;28;21051;-75
2022/09/15 10:48:12;;;;;;;4.97;3.10;;;24.20;99.90;;;;;;5012829;28;20580;-75
2022/09/15 10:50:50;;;;;;;6.00;3.17;;;24.20;99.90;;;;;;5010642;28;20577;-75
2022/09/15 10:53:40;;;;;;;5.13;2.50;;;24.20;99.90;;;;;;5010231;28;20585;-74
2022/09/15 10:56:21;;;;;;;3.97;2.50;;;24.10;99.90;;;;;;5010423;28;20577;-74
2022/09/15 10:59:06;;;;;;;4.87;2.40;;;24.00;99.90;;;;;;5010174;28;20607;-75
2022/09/15 11:01:58;;;;;;;4.70;2.27;;;24.00;99.90;;;;;;5011467;28;20600;-75
2022/09/15 11:04:43;;;;;;;6.53;2.80;;;23.90;99.90;;;;;;5010104;28;20597;-75
2022/09/15 11:07:21;;;;;;;7.80;2.53;;;23.90;99.90;;;;;;4986643;28;20917;-74
2022/09/15 11:10:02;;;;;;;4.30;1.70;;;23.90;99.90;;;;;;4993738;28;21231;-74
2022/09/15 11:12:40;;;;;;;5.23;2.13;;;23.90;99.90;;;;;;5011353;28;20588;-74
2022/09/15 11:15:38;;;;;;;8.93;2.80;;;24.00;99.90;;;;;;5010160;28;21179;-75
2022/09/15 11:18:38;;;;;;;3.93;1.63;;;24.00;99.90;;;;;;5013995;28;20738;-75
2022/09/15 11:21:36;;;;;;;3.90;1.90;;;24.10;99.90;;;;;;5012396;28;20603;-76
2022/09/15 11:24:15;;;;;;;4.10;1.47;;;24.20;99.90;;;;;;4996366;28;20593;-76
2022/09/15 11:26:56;;;;;;;3.60;2.70;;;24.30;99.90;;;;;;5025762;28;20586;-76
2022/09/15 11:29:25;;;;;;;8.23;2.20;;;24.30;99.90;;;;;;5026753;28;20597;-77
2022/09/15 11:31:59;;;;;;;3.83;1.97;;;24.30;99.90;;;;;;5020328;28;20577;-75
2022/09/15 11:34:44;;;;;;;6.50;1.80;;;24.30;99.90;;;;;;5019545;28;20969;-75
2022/09/15 11:37:17;;;;;;;3.77;2.43;;;24.30;99.90;;;;;;5017426;28;20589;-75
2022/09/15 11:39:54;;;;;;;5.40;2.43;;;24.40;99.90;;;;;;5024226;28;20967;-76
2022/09/15 11:42:36;;;;;;;5.37;2.27;;;24.30;99.90;;;;;;5023082;28;20569;-76
2022/09/15 11:45:03;;;;;;;4.67;2.67;;;24.30;99.90;;;;;;5023445;28;20664;-75
2022/09/15 11:47:38;;;;;;;4.20;2.13;;;24.30;99.90;;;;;;5023453;28;20989;-76
2022/09/15 11:50:22;;;;;;;3.87;1.77;;;24.30;99.90;;;;;;5023470;28;20608;-76
2022/09/15 11:53:15;;;;;;;11.93;3.37;;;24.30;99.90;;;;;;5030678;28;20580;-77
2022/09/15 11:55:53;;;;;;;8.00;2.93;;;24.30;99.90;;;;;;5033720;28;20605;-76
2022/09/15 11:58:28;;;;;;;7.00;2.53;;;24.40;99.90;;;;;;5032961;28;20565;-77
2022/09/15 12:01:11;;;;;;;7.43;4.50;;;24.40;99.90;;;;;;5034878;28;20567;-77
2022/09/15 12:03:52;;;;;;;5.53;4.03;;;24.40;99.90;;;;;;5050733;28;20688;-77
2022/09/15 12:06:37;;;;;;;3.87;2.50;;;24.30;99.90;;;;;;5027400;28;20986;-76
2022/09/15 12:09:06;;;;;;;3.37;1.73;;;24.30;99.90;;;;;;5028501;28;20778;-76
2022/09/15 12:11:37;;;;;;;7.17;2.33;;;24.30;99.90;;;;;;5030417;28;20672;-77
2022/09/15 12:14:04;;;;;;;5.63;3.73;;;24.20;99.90;;;;;;5028039;28;20696;-77
2022/09/15 12:16:33;;;;;;;4.70;3.60;;;24.30;99.90;;;;;;5025527;28;20700;-77
2022/09/15 12:18:59;;;;;;;4.80;3.27;;;24.20;99.90;;;;;;5021537;28;21105;-77
2022/09/15 12:21:37;;;;;;;7.23;4.90;;;24.20;99.90;;;;;;5025348;28;20577;-77
2022/09/15 12:24:12;;;;;;;6.23;4.20;;;24.20;99.90;;;;;;5022602;28;20177;-76
2022/09/15 12:26:41;;;;;;;4.20;2.87;;;24.20;99.90;;;;;;5019664;28;20581;-76
2022/09/15 12:29:40;;;;;;;4.50;2.20;;;24.20;99.90;;;;;;5020103;28;20615;-76
2022/09/15 12:32:20;;;;;;;2.67;1.63;;;24.20;99.90;;;;;;5015553;28;20605;-76
2022/09/15 12:35:17;;;;;;;2.67;1.30;;;24.20;99.90;;;;;;5022721;28;20621;-76
2022/09/15 12:37:57;;;;;;;3.30;1.00;;;24.10;99.90;;;;;;5021277;28;20585;-76
2022/09/15 12:40:29;;;;;;;5.90;1.67;;;24.10;99.90;;;;;;5018308;28;20651;-76
2022/09/15 12:42:56;;;;;;;4.90;2.50;;;24.10;99.90;;;;;;5017459;28;20961;-76
2022/09/15 12:45:26;;;;;;;7.13;3.00;;;24.10;99.90;;;;;;5020079;28;20624;-76
2022/09/15 12:47:53;;;;;;;6.03;2.93;;;24.10;99.90;;;;;;5020751;28;20569;-76
2022/09/15 12:50:35;;;;;;;4.63;1.70;;;24.00;99.90;;;;;;5022253;28;20656;-76
2022/09/15 12:53:11;;;;;;;2.50;1.30;;;24.10;99.90;;;;;;5019563;28;20601;-75
2022/09/15 12:55:51;;;;;;;2.97;1.33;;;24.20;99.90;;;;;;5020107;28;20589;-75
2022/09/15 12:58:37;;;;;;;5.33;1.73;;;24.20;99.90;;;;;;5013687;28;20585;-76
2022/09/15 13:01:18;;;;;;;4.20;1.10;;;24.20;99.90;;;;;;5024352;28;20588;-76